KCBE/CBE METAR and TAF weather

Enter ICAO airport designator
Station Type Date Time Source
KCBE METAR 2019/08/19 22:40 UTC NOAA

KCBE 192240Z AUTO 24005KT 10SM CLR 31/19 A3004 RMK AO2 T03150189


Station Type Date Time Source
KCBE Decoded METAR 2019/08/19 22:40 UTC NOAA

Cumberland, Greater Cumberland Regional Airport, MD, United States (KCBE) 39-36-55N 078-45-39W
Aug 19, 2019 - 06:40 PM EDT / 2019.08.19 2240 UTC
Wind: from the WSW (240 degrees) at 6 MPH (5 KT):0
Visibility: 10 mile(s):0
Sky conditions: clear
Temperature: 88.7 F (31.5 C)
Dew Point: 66.0 F (18.9 C)
Relative Humidity: 47%
Pressure (altimeter): 30.04 in. Hg (1017 hPa)
ob: KCBE 192240Z AUTO 24005KT 10SM CLR 31/19 A3004 RMK AO2 T03150189
cycle: 22

Station Type Date Time Source
KCBE TAF UTC NOAA

Error!

Example: see airport list